Time;durP1;ratioP1;P1;durP2;ratioP2;P2;SDS_P1;SDS_P2;PMS_P1;PMS_P2;Temp;Humidity;BMP_temperature;BMP_pressure;BME280_temperature;BME280_humidity;BME280_pressure;Samples;Min_cycle;Max_cycle;Signal;HPM_P1;HPM_P2
2022/08/20 00:00:40;;;;;;;;;3.00;1.50;;;;;19.39;61.04;101147.53;5073335;28;46187;-78
2022/08/20 00:03:13;;;;;;;;;3.00;2.25;;;;;19.36;61.12;101163.78;5073180;28;45676;-78
2022/08/20 00:05:42;;;;;;;;;3.25;2.00;;;;;19.34;61.03;101148.00;5047418;28;45691;-80
2022/08/20 00:08:09;;;;;;;;;2.50;2.25;;;;;19.37;61.70;101160.16;5054348;28;47967;-78
2022/08/20 00:10:37;;;;;;;;;5.25;3.00;;;;;19.34;61.04;101149.81;5073282;28;45663;-76
2022/08/20 00:13:04;;;;;;;;;3.00;2.00;;;;;19.33;61.57;101141.00;5073302;28;45687;-78
2022/08/20 00:15:33;;;;;;;;;2.75;1.25;;;;;19.35;61.42;101154.16;5072671;28;45569;-79
2022/08/20 00:17:59;;;;;;;;;2.50;2.00;;;;;19.31;61.83;101145.66;5054439;28;48312;-77
2022/08/20 00:20:29;;;;;;;;;3.25;2.00;;;;;19.26;61.64;101135.50;5068422;28;48005;-77
2022/08/20 00:22:56;;;;;;;;;4.00;3.00;;;;;19.25;61.45;101132.97;5069631;28;45540;-77
2022/08/20 00:25:23;;;;;;;;;3.00;2.75;;;;;19.26;61.96;101138.16;5073203;28;45540;-80
2022/08/20 00:27:49;;;;;;;;;2.50;2.25;;;;;19.26;61.98;101135.50;5072470;28;46442;-79
2022/08/20 00:30:14;;;;;;;;;2.00;2.00;;;;;19.27;61.56;101144.31;5054603;28;47965;-80
2022/08/20 00:32:50;;;;;;;;;2.25;2.00;;;;;19.20;61.89;101141.41;5072441;28;45757;-79
2022/08/20 00:35:19;;;;;;;;;3.25;2.50;;;;;19.19;61.98;101141.56;5045553;28;45716;-80
2022/08/20 00:37:45;;;;;;;;;2.50;2.00;;;;;19.17;61.66;101139.03;5068308;28;45695;-76
2022/08/20 00:40:15;;;;;;;;;4.25;2.00;;;;;19.14;61.85;101149.97;5062830;28;45641;-80
2022/08/20 00:42:47;;;;;;;;;2.25;1.00;;;;;19.11;62.15;101150.25;5072511;28;45757;-79
2022/08/20 00:45:14;;;;;;;;;4.50;2.00;;;;;19.09;61.93;101140.78;5073431;28;45737;-80
2022/08/20 00:47:42;;;;;;;;;4.00;4.00;;;;;19.08;61.86;101144.44;5077134;27;45747;-78
2022/08/20 00:50:12;;;;;;;;;3.00;2.00;;;;;19.08;61.65;101153.22;5074121;28;46055;-81
2022/08/20 00:52:41;;;;;;;;;3.00;3.00;;;;;19.05;61.94;101144.75;5074123;28;45749;-80
2022/08/20 00:55:09;;;;;;;;;2.75;1.75;;;;;19.02;62.08;101129.94;5055064;28;46168;-79
2022/08/20 00:57:45;;;;;;;;;3.00;2.25;;;;;19.01;61.53;101146.84;5074312;28;45886;-79
2022/08/20 01:00:31;;;;;;;;;3.00;2.00;;;;;18.96;61.82;101140.31;5074744;28;47150;-80
2022/08/20 01:02:59;;;;;;;;;5.00;3.00;;;;;18.90;62.03;101143.56;5075027;28;45527;-79
2022/08/20 01:05:25;;;;;;;;;3.25;2.00;;;;;18.90;62.12;101146.22;5067627;28;45956;-79
2022/08/20 01:07:55;;;;;;;;;3.00;2.00;;;;;18.88;62.58;101135.75;5079889;28;45785;-79
2022/08/20 01:10:27;;;;;;;;;5.00;3.00;;;;;18.89;62.36;101147.22;5076976;28;46482;-80
2022/08/20 01:12:56;;;;;;;;;2.75;2.00;;;;;18.85;62.54;101136.88;5063626;28;46576;-76
2022/08/20 01:15:25;;;;;;;;;4.50;2.00;;;;;18.83;62.09;101136.22;5075342;28;46073;-79
2022/08/20 01:17:57;;;;;;;;;5.00;2.50;;;;;18.79;62.06;101134.81;5079799;28;45740;-80
2022/08/20 01:20:43;;;;;;;;;3.00;2.75;;;;;18.77;62.22;101136.81;5079389;28;46325;-80
2022/08/20 01:23:29;;;;;;;;;2.00;2.00;;;;;18.72;62.92;101128.47;5079535;28;45921;-81
2022/08/20 01:25:59;;;;;;;;;2.00;2.00;;;;;18.70;62.46;101140.19;5075969;28;45769;-82
2022/08/20 01:28:48;;;;;;;;;4.00;3.00;;;;;18.67;62.91;101124.59;5074009;28;48596;-79
2022/08/20 01:31:19;;;;;;;;;3.00;3.00;;;;;18.68;62.62;101127.06;5016654;28;48200;-81
2022/08/20 01:33:45;;;;;;;;;2.00;1.50;;;;;18.66;62.26;101130.88;5000083;28;45703;-77
2022/08/20 01:36:12;;;;;;;;;3.00;2.75;;;;;18.65;62.69;101126.53;5019497;28;45846;-78
2022/08/20 01:38:38;;;;;;;;;6.25;4.00;;;;;18.64;62.59;101138.13;5020478;28;46624;-81
2022/08/20 01:41:06;;;;;;;;;3.25;2.75;;;;;18.69;62.66;101149.13;5021116;28;46239;-76
2022/08/20 01:43:32;;;;;;;;;3.25;2.00;;;;;18.66;62.30;101139.66;5020477;28;46287;-78
2022/08/20 01:45:57;;;;;;;;;2.25;2.00;;;;;18.67;62.37;101146.66;5020176;28;45845;-80
2022/08/20 01:48:23;;;;;;;;;3.25;3.00;;;;;18.64;62.51;101143.44;5019725;28;45840;-79
2022/08/20 01:50:57;;;;;;;;;4.00;2.00;;;;;18.61;62.38;101157.84;5020321;28;46068;-80
2022/08/20 01:53:32;;;;;;;;;3.50;2.00;;;;;18.61;62.99;101164.97;5020567;28;46101;-78
2022/08/20 01:55:59;;;;;;;;;3.75;1.50;;;;;18.60;63.06;101165.97;5020383;28;45870;-78
2022/08/20 01:58:26;;;;;;;;;3.75;2.00;;;;;18.53;63.06;101159.53;5019955;28;45823;-78
2022/08/20 02:00:52;;;;;;;;;4.25;2.75;;;;;18.51;62.76;101164.16;5018515;28;46430;-80
2022/08/20 02:03:17;;;;;;;;;4.75;3.00;;;;;18.45;63.26;101158.47;5016980;28;45568;-76
2022/08/20 02:05:42;;;;;;;;;4.00;2.00;;;;;18.45;63.44;101160.28;5012995;28;45857;-80
2022/08/20 02:08:09;;;;;;;;;2.75;2.75;;;;;18.46;63.39;101161.94;5030138;28;46474;-81
2022/08/20 02:10:35;;;;;;;;;4.00;2.75;;;;;18.46;63.24;101160.09;5074787;28;45651;-79
2022/08/20 02:13:00;;;;;;;;;3.00;2.50;;;;;18.45;63.34;101166.41;5074992;28;45709;-80
2022/08/20 02:15:26;;;;;;;;;3.50;2.25;;;;;18.41;63.20;101161.53;5074700;28;45973;-81
2022/08/20 02:17:51;;;;;;;;;4.00;4.00;;;;;18.35;63.22;101170.09;5074673;28;45681;-81
2022/08/20 02:20:23;;;;;;;;;3.00;2.75;;;;;18.31;63.21;101163.38;5068992;28;46891;-78
2022/08/20 02:22:55;;;;;;;;;3.75;3.00;;;;;18.28;63.73;101175.13;5050356;28;46091;-79
2022/08/20 02:25:23;;;;;;;;;5.50;4.00;;;;;18.24;63.47;101173.75;5058696;28;45906;-79
2022/08/20 02:27:50;;;;;;;;;2.50;2.00;;;;;18.20;64.06;101169.69;5077318;28;45652;-81
2022/08/20 02:30:37;;;;;;;;;3.75;3.00;;;;;18.17;64.19;101164.69;5076765;28;46125;-79
2022/08/20 02:33:06;;;;;;;;;4.00;3.00;;;;;18.11;64.42;101159.13;5076439;28;45691;-80
2022/08/20 02:35:32;;;;;;;;;2.00;2.00;;;;;18.07;64.22;101165.72;5047413;28;45733;-81
2022/08/20 02:37:58;;;;;;;;;5.00;4.00;;;;;18.01;64.70;101169.78;5085316;27;47984;-80
2022/08/20 02:40:25;;;;;;;;;3.50;2.50;;;;;17.99;64.73;101167.25;5076858;28;46625;-80
2022/08/20 02:42:51;;;;;;;;;4.00;3.25;;;;;17.94;64.77;101171.31;5074105;28;45699;-80
2022/08/20 02:45:18;;;;;;;;;3.50;2.00;;;;;17.89;64.73;101166.44;5075059;28;45652;-80
2022/08/20 02:47:45;;;;;;;;;3.00;3.00;;;;;17.85;65.17;101165.06;5074973;27;46545;-81
2022/08/20 02:50:14;;;;;;;;;5.00;3.00;;;;;17.81;65.36;101165.50;5075195;28;45653;-80
2022/08/20 02:52:40;;;;;;;;;4.25;3.00;;;;;17.77;65.28;101170.22;5056034;28;45755;-79
2022/08/20 02:55:07;;;;;;;;;4.50;2.50;;;;;17.75;65.23;101174.00;5063810;28;45653;-81
2022/08/20 02:57:32;;;;;;;;;4.25;2.25;;;;;17.71;65.40;101176.06;5072816;28;47307;-81
2022/08/20 02:59:58;;;;;;;;;3.00;2.00;;;;;17.66;65.98;101173.03;5056292;28;46140;-81
2022/08/20 03:02:23;;;;;;;;;2.25;2.00;;;;;17.62;66.06;101174.28;5073603;28;45934;-79
2022/08/20 03:04:49;;;;;;;;;3.50;3.00;;;;;17.58;65.78;101168.41;5074653;28;45675;-80
2022/08/20 03:07:15;;;;;;;;;2.00;2.00;;;;;17.61;65.97;101176.09;5073041;28;48290;-77
2022/08/20 03:09:40;;;;;;;;;4.00;3.00;;;;;17.63;66.37;101169.81;5063618;28;46399;-79
2022/08/20 03:12:07;;;;;;;;;8.00;3.00;;;;;17.59;66.32;101167.47;5080030;28;45664;-81
2022/08/20 03:14:33;;;;;;;;;3.50;2.00;;;;;17.55;66.40;101173.97;5053063;28;45835;-81
2022/08/20 03:16:59;;;;;;;;;3.25;2.00;;;;;17.52;66.62;101173.41;5072633;28;47473;-81
2022/08/20 03:19:25;;;;;;;;;3.25;3.25;;;;;17.47;66.43;101171.19;5074112;28;46165;-80
2022/08/20 03:21:51;;;;;;;;;6.75;4.50;;;;;17.42;66.39;101170.78;5055524;28;45944;-80
2022/08/20 03:24:17;;;;;;;;;7.00;3.00;;;;;17.41;66.54;101168.25;5074029;28;45978;-79
2022/08/20 03:26:42;;;;;;;;;4.00;3.00;;;;;17.40;66.53;101170.06;5055944;28;47295;-80
2022/08/20 03:29:08;;;;;;;;;4.00;2.00;;;;;17.39;67.07;101164.91;5073320;28;45628;-81
2022/08/20 03:31:34;;;;;;;;;3.00;3.00;;;;;17.39;67.02;101171.03;5073786;28;45649;-81
2022/08/20 03:33:59;;;;;;;;;3.00;2.50;;;;;17.38;66.87;101172.00;5074043;28;45688;-80
2022/08/20 03:36:26;;;;;;;;;3.25;2.25;;;;;17.36;66.58;101178.44;5060099;28;45723;-78
2022/08/20 03:38:51;;;;;;;;;3.00;3.00;;;;;17.32;67.26;101166.47;5073683;28;46554;-79
2022/08/20 03:41:17;;;;;;;;;4.00;4.00;;;;;17.31;67.14;101165.63;5073600;28;45507;-79
2022/08/20 03:43:43;;;;;;;;;2.00;2.00;;;;;17.30;67.08;101165.75;5055386;28;45697;-79
2022/08/20 03:46:09;;;;;;;;;3.25;2.00;;;;;17.30;67.17;101168.41;5048657;28;46397;-81
2022/08/20 03:48:34;;;;;;;;;3.00;3.00;;;;;17.28;66.76;101168.53;5074530;27;46439;-77
2022/08/20 03:51:00;;;;;;;;;2.50;2.00;;;;;17.30;66.77;101173.69;5073665;28;46279;-79
2022/08/20 03:53:30;;;;;;;;;3.75;3.00;;;;;17.29;67.18;101169.38;5073432;28;45822;-80
2022/08/20 03:55:59;;;;;;;;;3.25;3.00;;;;;17.30;66.84;101174.53;5073296;28;46464;-81
2022/08/20 03:58:27;;;;;;;;;3.50;3.00;;;;;17.29;66.87;101174.66;5072304;28;46675;-79
2022/08/20 04:00:54;;;;;;;;;2.25;2.00;;;;;17.28;66.55;101171.16;5073314;28;45549;-80
2022/08/20 04:03:21;;;;;;;;;2.50;2.00;;;;;17.20;66.69;101171.03;5072733;28;45891;-77
2022/08/20 04:05:47;;;;;;;;;1.25;1.25;;;;;17.20;67.09;101176.34;5073045;28;46688;-79
2022/08/20 04:08:19;;;;;;;;;3.00;2.00;;;;;17.21;67.16;101180.66;5073213;28;45894;-79
2022/08/20 04:10:46;;;;;;;;;3.00;3.00;;;;;17.17;66.49;101177.44;5071268;28;45672;-77
2022/08/20 04:13:12;;;;;;;;;3.00;3.00;;;;;17.19;67.05;101179.94;5069130;28;45677;-79
2022/08/20 04:15:38;;;;;;;;;4.00;2.25;;;;;17.16;66.53;101183.72;5068408;28;46663;-79
2022/08/20 04:18:07;;;;;;;;;4.00;2.25;;;;;17.15;67.16;101187.34;5052401;28;46005;-78
2022/08/20 04:20:34;;;;;;;;;3.50;3.50;;;;;17.13;67.51;101183.16;5046291;28;45685;-79
2022/08/20 04:23:00;;;;;;;;;3.75;2.00;;;;;17.12;67.09;101173.53;5051747;28;45649;-78
2022/08/20 04:25:31;;;;;;;;;2.00;2.00;;;;;17.10;66.72;101175.50;5052542;28;46387;-80
2022/08/20 04:27:58;;;;;;;;;3.50;1.75;;;;;17.05;66.68;101177.72;5051942;28;46275;-80
2022/08/20 04:30:24;;;;;;;;;2.00;2.00;;;;;16.99;67.04;101180.91;5051262;28;45767;-80
2022/08/20 04:32:50;;;;;;;;;4.00;2.00;;;;;17.00;67.21;101179.94;5050984;28;45620;-79
2022/08/20 04:35:17;;;;;;;;;2.00;2.00;;;;;16.99;67.25;101178.25;5043504;28;45842;-78
2022/08/20 04:37:45;;;;;;;;;3.75;3.00;;;;;17.01;67.21;101186.88;5047030;28;48537;-79
2022/08/20 04:43:03;;;;;;;;;3.25;3.00;;;;;16.99;67.41;101178.25;5052854;28;45604;-79
2022/08/20 04:45:29;;;;;;;;;3.75;3.00;;;;;16.98;66.98;101181.88;5052552;28;45679;-79
2022/08/20 04:47:54;;;;;;;;;3.25;2.00;;;;;16.94;67.63;101177.81;5055191;28;46200;-77
2022/08/20 04:50:21;;;;;;;;;2.75;1.00;;;;;16.95;67.42;101182.16;5052501;28;45979;-79
2022/08/20 04:52:47;;;;;;;;;3.00;3.00;;;;;16.92;67.60;101177.13;5051707;28;45825;-81
2022/08/20 04:55:15;;;;;;;;;3.00;2.00;;;;;16.92;67.23;101182.41;5045778;28;45683;-77
2022/08/20 04:57:41;;;;;;;;;6.00;3.00;;;;;16.94;67.49;101183.97;5051515;28;45931;-78
2022/08/20 05:00:09;;;;;;;;;3.75;3.75;;;;;16.94;67.37;101183.97;5052640;28;45650;-81
2022/08/20 05:02:36;;;;;;;;;2.25;2.00;;;;;16.93;67.20;101186.75;5050648;28;45606;-79
2022/08/20 05:05:03;;;;;;;;;3.00;3.00;;;;;16.93;67.07;101189.38;5052787;28;47127;-79
2022/08/20 05:07:28;;;;;;;;;3.00;3.00;;;;;16.92;67.28;101196.47;5050571;28;48453;-78
2022/08/20 05:09:54;;;;;;;;;3.00;2.00;;;;;16.91;67.13;101200.09;5051410;28;45605;-82
2022/08/20 05:12:19;;;;;;;;;3.00;3.00;;;;;16.90;67.26;101200.22;5052041;28;45546;-78
2022/08/20 05:14:45;;;;;;;;;4.00;3.00;;;;;16.91;67.05;101208.03;5058608;28;45648;-79
2022/08/20 05:17:13;;;;;;;;;4.50;3.00;;;;;16.91;67.41;101209.84;5053814;28;46415;-80
2022/08/20 05:19:40;;;;;;;;;3.00;2.00;;;;;16.87;67.28;101205.81;5072575;28;45786;-78
2022/08/20 05:22:06;;;;;;;;;6.25;4.00;;;;;16.89;67.22;101204.72;5067564;28;46176;-80
2022/08/20 05:24:31;;;;;;;;;3.50;3.00;;;;;16.89;67.30;101199.41;5066083;28;46394;-78
2022/08/20 05:27:00;;;;;;;;;2.25;2.25;;;;;16.93;67.36;101203.47;5070519;28;46824;-78
2022/08/20 05:29:26;;;;;;;;;4.00;2.25;;;;;16.95;67.20;101212.09;5065919;28;46224;-80
2022/08/20 05:31:52;;;;;;;;;2.50;2.00;;;;;16.97;67.28;101212.78;5071847;28;45562;-78
2022/08/20 05:34:18;;;;;;;;;2.00;2.00;;;;;16.97;66.99;101207.50;5070869;28;45729;-80
2022/08/20 05:36:46;;;;;;;;;6.00;4.00;;;;;17.01;67.03;101218.66;5054013;28;47171;-80
2022/08/20 05:39:12;;;;;;;;;2.75;2.00;;;;;16.99;67.05;101207.38;5072019;28;45705;-80
2022/08/20 05:41:38;;;;;;;;;3.50;3.00;;;;;16.99;67.15;101215.31;5071014;28;45873;-81
2022/08/20 05:44:09;;;;;;;;;5.25;2.50;;;;;17.00;67.06;101222.28;5053295;28;45734;-79
2022/08/20 05:46:38;;;;;;;;;3.00;2.00;;;;;17.02;66.75;101226.47;5071841;28;46231;-80
2022/08/20 05:49:03;;;;;;;;;1.75;1.75;;;;;17.02;67.29;101225.63;5057508;28;45572;-80
2022/08/20 05:51:29;;;;;;;;;2.00;2.00;;;;;17.03;66.64;101219.34;5072257;28;45538;-80
2022/08/20 05:53:56;;;;;;;;;3.00;3.00;;;;;17.07;67.17;101226.06;5071260;28;45667;-81
2022/08/20 05:56:22;;;;;;;;;4.00;2.00;;;;;17.04;67.13;101221.03;5071972;28;46096;-80
2022/08/20 05:58:48;;;;;;;;;3.00;2.75;;;;;17.07;66.67;101229.53;5071318;28;46273;-80
2022/08/20 06:01:13;;;;;;;;;2.00;2.00;;;;;17.05;66.58;101223.56;5071589;28;45811;-80
2022/08/20 06:06:22;;;;;;;;;3.00;2.75;;;;;17.06;66.95;101224.38;5071744;28;46054;-80
2022/08/20 06:08:48;;;;;;;;;5.50;4.00;;;;;17.06;66.76;101234.97;5071208;28;45868;-80
2022/08/20 06:11:13;;;;;;;;;3.00;2.25;;;;;17.08;66.64;101243.63;5067437;28;45827;-81
2022/08/20 06:13:38;;;;;;;;;3.25;3.00;;;;;17.06;66.71;101240.25;5068709;28;45743;-80
2022/08/20 06:16:04;;;;;;;;;3.00;3.00;;;;;17.05;66.88;101243.91;5071567;28;46231;-78
2022/08/20 06:18:30;;;;;;;;;3.00;3.00;;;;;17.02;66.46;101244.16;5053659;28;45801;-79
2022/08/20 06:20:55;;;;;;;;;3.50;2.50;;;;;17.01;66.98;101243.31;5072198;28;45718;-80
2022/08/20 06:23:22;;;;;;;;;4.00;2.75;;;;;17.03;66.87;101244.03;5074586;28;45882;-79
2022/08/20 06:25:49;;;;;;;;;4.00;3.00;;;;;17.04;67.01;101236.94;5074990;28;46534;-80
2022/08/20 06:28:15;;;;;;;;;6.00;4.00;;;;;17.07;67.00;101242.78;5072317;28;45783;-76
2022/08/20 06:30:40;;;;;;;;;5.75;4.75;;;;;17.13;66.53;101244.06;5075279;28;46001;-76
2022/08/20 06:33:06;;;;;;;;;4.00;3.75;;;;;17.14;66.61;101233.34;5074385;28;46501;-78
2022/08/20 06:35:32;;;;;;;;;4.00;2.50;;;;;17.21;66.70;101244.22;5069289;28;46389;-80
2022/08/20 06:37:59;;;;;;;;;3.00;3.00;;;;;17.24;66.86;101243.09;5074224;28;45837;-81
2022/08/20 06:40:27;;;;;;;;;2.00;1.75;;;;;17.24;67.03;101237.81;5075097;28;45776;-80
2022/08/20 06:42:54;;;;;;;;;2.00;1.00;;;;;17.27;66.60;101245.50;5074088;28;45605;-80
2022/08/20 06:45:24;;;;;;;;;4.50;2.75;;;;;17.28;67.08;101252.44;5074632;28;46092;-80
2022/08/20 06:47:50;;;;;;;;;4.00;4.00;;;;;17.29;66.35;101247.00;5074223;27;46129;-81
2022/08/20 06:50:22;;;;;;;;;4.25;4.00;;;;;17.28;66.91;101247.13;5075015;28;45713;-78
2022/08/20 06:52:47;;;;;;;;;4.50;3.00;;;;;17.29;66.59;101248.81;5068829;28;46716;-79
2022/08/20 06:55:14;;;;;;;;;3.75;3.00;;;;;17.29;66.62;101248.81;5049439;28;46996;-81
2022/08/20 06:57:40;;;;;;;;;4.75;3.00;;;;;17.27;66.80;101246.34;5074004;28;45690;-78
2022/08/20 07:00:10;;;;;;;;;4.25;3.25;;;;;17.34;66.63;101252.72;5074944;28;45655;-79
2022/08/20 07:02:36;;;;;;;;;5.25;4.00;;;;;17.36;66.41;101247.31;5064773;28;45898;-79
2022/08/20 07:05:04;;;;;;;;;7.00;4.00;;;;;17.42;66.85;101252.91;5052809;28;46988;-78
2022/08/20 07:07:29;;;;;;;;;4.50;4.00;;;;;17.43;66.31;101237.84;5052244;28;45773;-78
2022/08/20 07:10:01;;;;;;;;;4.25;2.00;;;;;17.48;66.36;101241.75;5040630;28;45635;-77
2022/08/20 07:12:26;;;;;;;;;4.75;4.50;;;;;17.51;66.73;101245.94;5061878;28;45897;-77
2022/08/20 07:14:52;;;;;;;;;3.50;3.00;;;;;17.54;66.85;101243.03;5073936;28;45877;-78
2022/08/20 07:17:17;;;;;;;;;10.25;10.00;;;;;17.57;66.30;101238.28;5073743;28;45695;-79
2022/08/20 07:19:42;;;;;;;;;4.50;3.00;;;;;17.61;66.31;101238.84;5074323;28;45743;-77
2022/08/20 07:22:08;;;;;;;;;3.00;3.00;;;;;17.69;66.46;101240.81;5073594;28;46662;-78
2022/08/20 07:24:33;;;;;;;;;5.25;3.75;;;;;17.72;66.64;101243.19;5074446;28;47634;-79
2022/08/20 07:27:00;;;;;;;;;4.00;3.00;;;;;17.77;65.97;101233.84;5063287;28;45724;-80
2022/08/20 07:32:33;;;;;;;;;3.75;2.25;;;;;17.81;66.41;101245.00;5073858;28;45770;-77
2022/08/20 07:34:55;;;;;;;;;5.00;4.00;;;;;17.92;66.26;101244.88;5051895;28;45810;-79
2022/08/20 07:37:22;;;;;;;;;3.75;3.00;;;;;17.95;66.08;101256.03;5066545;28;45902;-78
2022/08/20 07:39:48;;;;;;;;;3.00;3.00;;;;;18.00;65.82;101251.13;5073892;28;45672;-79
2022/08/20 07:42:14;;;;;;;;;3.00;3.00;;;;;18.01;65.68;101252.81;5073213;28;46869;-79
2022/08/20 07:44:39;;;;;;;;;5.75;3.25;;;;;18.00;65.69;101256.44;5064610;28;45686;-81
2022/08/20 07:47:05;;;;;;;;;6.00;4.00;;;;;18.09;66.06;101261.84;5073233;27;45526;-78
2022/08/20 07:49:30;;;;;;;;;4.25;3.25;;;;;18.13;66.10;101252.66;5073806;27;45782;-80
2022/08/20 07:51:56;;;;;;;;;4.25;2.25;;;;;18.16;66.17;101247.06;5072981;28;47297;-79
2022/08/20 07:54:21;;;;;;;;;2.50;2.00;;;;;18.20;66.25;101254.59;5071935;28;47221;-80
2022/08/20 07:56:47;;;;;;;;;4.00;3.00;;;;;18.25;65.90;101260.28;5072992;28;45864;-78
2022/08/20 07:59:13;;;;;;;;;3.00;2.25;;;;;18.29;65.86;101261.72;5073449;28;45966;-79
2022/08/20 08:01:39;;;;;;;;;5.75;3.00;;;;;18.34;65.87;101261.28;5070264;28;45539;-77
2022/08/20 08:04:04;;;;;;;;;4.75;4.00;;;;;18.40;65.37;101266.84;5073026;28;45719;-78
2022/08/20 08:06:30;;;;;;;;;4.75;4.00;;;;;18.43;65.94;101258.59;5068761;28;45710;-77
2022/08/20 08:09:08;;;;;;;;;4.00;3.00;;;;;18.55;65.75;101271.72;5072590;28;45818;-80
2022/08/20 08:11:37;;;;;;;;;6.00;2.50;;;;;18.61;65.69;101265.84;5072834;28;46780;-81
2022/08/20 08:14:05;;;;;;;;;4.50;3.00;;;;;18.67;65.48;101274.06;5051615;28;48465;-78
2022/08/20 08:16:31;;;;;;;;;4.50;3.00;;;;;18.73;65.50;101257.53;5068604;28;45804;-76
2022/08/20 08:18:57;;;;;;;;;4.50;3.75;;;;;18.81;65.30;101270.09;5063201;28;45791;-75
2022/08/20 08:21:24;;;;;;;;;3.75;2.00;;;;;18.84;65.40;101265.31;5054796;28;46668;-77
2022/08/20 08:23:50;;;;;;;;;3.00;2.00;;;;;18.86;65.53;101262.53;5054332;28;48171;-78
2022/08/20 08:26:16;;;;;;;;;4.25;2.75;;;;;18.95;65.46;101266.94;5072912;28;45957;-79
2022/08/20 08:28:43;;;;;;;;;2.75;2.00;;;;;18.99;64.41;101271.00;5085081;27;46019;-81
2022/08/20 08:31:08;;;;;;;;;5.00;2.50;;;;;19.05;64.87;101274.91;5068435;28;45736;-80
2022/08/20 08:33:34;;;;;;;;;3.75;2.75;;;;;19.09;64.58;101277.09;5072852;28;46151;-81
2022/08/20 08:36:09;;;;;;;;;5.00;2.25;;;;;19.17;64.74;101279.00;5056553;28;45728;-80
2022/08/20 08:38:36;;;;;;;;;4.00;3.00;;;;;19.25;64.16;101284.44;5073056;28;45661;-76
2022/08/20 08:41:17;;;;;;;;;5.25;2.00;;;;;19.33;64.02;101279.19;5072817;28;45760;-80
2022/08/20 08:43:48;;;;;;;;;3.25;2.75;;;;;19.38;64.22;101279.56;5072339;28;45805;-80
2022/08/20 08:46:21;;;;;;;;;5.00;3.00;;;;;19.44;64.22;101271.00;5054665;28;45661;-82
2022/08/20 08:48:52;;;;;;;;;2.75;2.50;;;;;19.48;64.24;101276.91;5075942;27;45739;-79
2022/08/20 08:51:29;;;;;;;;;5.50;3.00;;;;;19.53;63.40;101270.16;5068547;28;46805;-80
2022/08/20 08:53:55;;;;;;;;;4.25;3.25;;;;;19.55;63.29;101270.00;5068465;28;46424;-79
2022/08/20 08:56:27;;;;;;;;;5.00;4.00;;;;;19.64;63.02;101261.97;5072943;28;46067;-81
2022/08/20 08:58:54;;;;;;;;;3.25;3.00;;;;;19.66;62.85;101265.28;5072016;28;45677;-79
2022/08/20 09:01:22;;;;;;;;;4.50;3.00;;;;;19.72;63.03;101269.16;5072531;28;46408;-81
2022/08/20 09:03:50;;;;;;;;;4.75;4.00;;;;;19.78;62.63;101270.38;5071691;28;46444;-81
2022/08/20 09:06:23;;;;;;;;;4.00;2.50;;;;;19.81;62.37;101270.09;5072900;28;45887;-79
2022/08/20 09:08:53;;;;;;;;;4.50;2.00;;;;;19.87;61.90;101274.78;5069037;28;45667;-81
2022/08/20 09:11:21;;;;;;;;;2.75;2.75;;;;;19.91;61.40;101276.16;5073752;28;46563;-82
2022/08/20 09:13:47;;;;;;;;;4.50;4.00;;;;;19.93;61.73;101269.69;5072365;28;46185;-78
2022/08/20 09:16:13;;;;;;;;;5.00;4.00;;;;;20.01;61.63;101264.44;5072330;28;45960;-78
2022/08/20 09:18:39;;;;;;;;;2.50;0.50;;;;;20.08;61.61;101264.69;5072497;28;45920;-79
2022/08/20 09:21:05;;;;;;;;;6.25;4.75;;;;;20.15;61.12;101264.88;5073250;28;46752;-81
2022/08/20 09:23:30;;;;;;;;;3.75;2.00;;;;;20.26;60.85;101267.28;5072098;28;45866;-81
2022/08/20 09:25:56;;;;;;;;;3.25;2.75;;;;;20.32;60.70;101256.88;5062435;28;45580;-81
2022/08/20 09:28:21;;;;;;;;;3.50;2.75;;;;;20.43;60.67;101263.78;5071036;28;45625;-80
2022/08/20 09:30:47;;;;;;;;;4.00;3.25;;;;;20.53;60.03;101272.50;5072031;28;45858;-82
2022/08/20 09:33:12;;;;;;;;;2.50;2.00;;;;;20.60;59.41;101273.53;5072121;28;45712;-82
2022/08/20 09:35:39;;;;;;;;;3.00;1.75;;;;;20.60;58.45;101260.22;5085001;27;45740;-82
2022/08/20 09:38:04;;;;;;;;;3.00;3.00;;;;;20.65;58.17;101268.56;5071383;27;46014;-80
2022/08/20 09:40:30;;;;;;;;;3.25;3.00;;;;;20.71;58.49;101265.28;5053983;28;48316;-80
2022/08/20 09:42:55;;;;;;;;;1.75;1.75;;;;;20.77;58.08;101267.31;5067400;28;46368;-80
2022/08/20 09:45:21;;;;;;;;;1.50;1.50;;;;;20.86;57.80;101258.38;5072183;28;46034;-81
2022/08/20 09:47:46;;;;;;;;;3.75;1.75;;;;;20.91;58.00;101261.38;5070393;27;45947;-80
2022/08/20 09:50:12;;;;;;;;;4.25;2.75;;;;;20.99;57.79;101263.25;5070826;28;47708;-79
2022/08/20 09:52:43;;;;;;;;;2.50;2.25;;;;;21.01;56.65;101268.41;5071417;28;46129;-76
2022/08/20 09:55:31;;;;;;;;;3.25;1.75;;;;;21.03;56.72;101274.41;5054019;28;45704;-79
2022/08/20 09:57:57;;;;;;;;;3.25;1.50;;;;;21.02;56.12;101267.41;5074953;28;45909;-81
2022/08/20 10:00:23;;;;;;;;;4.25;3.00;;;;;21.04;55.88;101265.44;5067244;28;46181;-81
2022/08/20 10:02:48;;;;;;;;;7.75;2.50;;;;;21.07;55.14;101265.09;5074858;28;45675;-80
2022/08/20 10:05:15;;;;;;;;;1.75;1.25;;;;;21.13;55.15;101264.47;5075252;28;45866;-78
2022/08/20 10:07:41;;;;;;;;;4.50;3.75;;;;;21.21;54.99;101253.88;5075149;28;45866;-81
2022/08/20 10:10:11;;;;;;;;;2.75;1.75;;;;;21.28;54.19;101250.38;5075358;28;45877;-78
2022/08/20 10:12:36;;;;;;;;;5.50;1.75;;;;;21.36;55.15;101252.25;5057221;28;46555;-81
2022/08/20 10:15:02;;;;;;;;;2.00;2.00;;;;;21.39;54.15;101254.56;5052997;28;45610;-81
2022/08/20 10:17:28;;;;;;;;;2.00;2.00;;;;;21.39;54.03;101245.72;5049630;28;45698;-82
2022/08/20 10:19:53;;;;;;;;;1.75;1.75;;;;;21.40;53.86;101253.56;5054138;28;46570;-82
2022/08/20 10:22:18;;;;;;;;;1.75;1.00;;;;;21.38;53.38;101252.09;5054654;28;45710;-80
2022/08/20 10:24:44;;;;;;;;;2.00;2.00;;;;;21.37;53.64;101247.75;5053421;28;46098;-79
2022/08/20 10:27:09;;;;;;;;;2.00;2.00;;;;;21.37;52.90;101248.59;5053274;28;45752;-80
2022/08/20 10:29:34;;;;;;;;;4.00;2.00;;;;;21.37;53.00;101243.25;5054735;28;47413;-79
2022/08/20 10:32:11;;;;;;;;;1.50;1.25;;;;;21.38;53.30;101241.44;5054080;28;45657;-81
2022/08/20 10:34:39;;;;;;;;;2.25;1.25;;;;;21.42;53.15;101238.25;5050505;28;45609;-78
2022/08/20 10:37:05;;;;;;;;;1.00;0.50;;;;;21.48;52.18;101242.09;5045421;28;45955;-80
2022/08/20 10:39:30;;;;;;;;;1.75;1.00;;;;;21.56;52.21;101236.78;5054910;28;45685;-80
2022/08/20 10:41:56;;;;;;;;;1.25;1.00;;;;;21.62;51.65;101233.44;5054383;28;46215;-82
2022/08/20 10:44:21;;;;;;;;;2.25;1.50;;;;;21.67;50.74;101241.78;5053169;28;45971;-79
2022/08/20 10:46:46;;;;;;;;;2.00;2.00;;;;;21.68;51.18;101228.28;5057205;28;45630;-81
2022/08/20 10:49:12;;;;;;;;;2.25;1.00;;;;;21.72;51.16;101236.78;5061549;28;46547;-82
2022/08/20 10:51:37;;;;;;;;;3.25;3.00;;;;;21.75;50.54;101244.47;5054704;28;46198;-80
2022/08/20 10:54:02;;;;;;;;;3.00;2.00;;;;;21.77;50.20;101235.28;5059299;28;46148;-83
2022/08/20 10:56:28;;;;;;;;;2.75;2.00;;;;;21.78;50.33;101231.63;5059090;28;45613;-83
2022/08/20 10:58:53;;;;;;;;;2.00;2.00;;;;;21.81;50.03;101230.44;5056145;28;47308;-81
2022/08/20 11:01:18;;;;;;;;;2.00;1.75;;;;;21.83;50.77;101231.13;5055560;28;45721;-83
2022/08/20 11:03:44;;;;;;;;;2.50;2.25;;;;;21.87;50.67;101224.44;5055001;28;45594;-78
2022/08/20 11:06:09;;;;;;;;;1.00;1.00;;;;;21.94;50.82;101230.81;5055182;28;45694;-80
2022/08/20 11:08:35;;;;;;;;;2.75;2.00;;;;;21.99;50.43;101241.00;5042908;28;45628;-82
2022/08/20 11:11:00;;;;;;;;;2.00;1.50;;;;;22.01;50.48;101233.66;5055127;28;45734;-83
2022/08/20 11:13:26;;;;;;;;;3.00;2.00;;;;;22.01;50.10;101236.31;5053905;28;46235;-82
2022/08/20 11:15:51;;;;;;;;;3.00;2.50;;;;;22.01;49.52;101237.16;5053765;28;45918;-82
2022/08/20 11:18:17;;;;;;;;;1.00;0.50;;;;;22.02;48.78;101238.00;5053473;28;45790;-82
2022/08/20 11:20:42;;;;;;;;;1.50;1.25;;;;;22.01;48.82;101239.84;5054167;28;45897;-83
2022/08/20 11:23:08;;;;;;;;;3.25;2.00;;;;;21.99;48.24;101230.31;5053173;28;45809;-82
2022/08/20 11:25:33;;;;;;;;;3.00;2.00;;;;;22.04;48.32;101241.31;5048580;28;45681;-83
2022/08/20 11:27:59;;;;;;;;;3.00;2.25;;;;;22.06;48.12;101242.00;5053296;28;47679;-80
2022/08/20 11:30:27;;;;;;;;;2.75;2.00;;;;;22.09;48.11;101229.13;5080118;27;46360;-81
2022/08/20 11:32:53;;;;;;;;;3.25;3.25;;;;;22.14;48.62;101237.47;5052568;28;45748;-82